createdAt,value
2018-09-18T00:00:41.721Z,11.40
2018-09-18T00:03:10.033Z,8.67
2018-09-18T00:05:38.280Z,10.13
2018-09-18T00:08:06.529Z,13.27
2018-09-18T00:10:34.752Z,10.67
2018-09-18T00:13:03.002Z,9.97
2018-09-18T00:15:32.005Z,10.93
2018-09-18T00:18:00.280Z,8.97
2018-09-18T00:20:28.543Z,10.47
2018-09-18T00:22:56.770Z,9.27
2018-09-18T00:25:25.036Z,16.93
2018-09-18T00:27:53.065Z,10.43
2018-09-18T00:30:21.309Z,9.13
2018-09-18T00:32:49.557Z,9.90
2018-09-18T00:35:18.037Z,8.50
2018-09-18T00:37:46.272Z,8.93
2018-09-18T00:40:14.545Z,9.00
2018-09-18T00:42:42.833Z,9.60
2018-09-18T00:45:11.153Z,9.33
2018-09-18T00:47:39.389Z,9.73
2018-09-18T00:50:07.737Z,9.27
2018-09-18T00:52:36.593Z,10.10
2018-09-18T00:55:04.916Z,10.27
2018-09-18T00:57:33.149Z,9.20
2018-09-18T01:00:01.402Z,9.30
2018-09-18T01:02:29.629Z,10.47
2018-09-18T01:04:57.897Z,9.47
2018-09-18T01:07:26.181Z,8.10
2018-09-18T01:09:54.405Z,10.37
2018-09-18T01:12:22.638Z,8.67
2018-09-18T01:14:50.664Z,9.33
2018-09-18T01:17:18.633Z,9.80
2018-09-18T01:19:46.628Z,9.00
2018-09-18T01:22:14.646Z,12.33
2018-09-18T01:24:43.225Z,8.73
2018-09-18T01:27:11.600Z,8.40
2018-09-18T01:29:40.581Z,9.03
2018-09-18T01:32:08.641Z,11.97
2018-09-18T01:34:37.345Z,8.63
2018-09-18T01:37:05.392Z,10.27
2018-09-18T01:39:33.374Z,8.53
2018-09-18T01:42:01.470Z,9.67
2018-09-18T01:44:29.566Z,9.37
2018-09-18T01:46:57.544Z,8.67
2018-09-18T01:49:25.803Z,9.83
2018-09-18T01:51:53.855Z,9.87
2018-09-18T01:54:22.118Z,8.60
2018-09-18T01:56:50.185Z,9.73
2018-09-18T01:59:18.389Z,8.50
2018-09-18T02:01:46.438Z,14.17
2018-09-18T02:04:14.598Z,8.73
2018-09-18T02:06:42.653Z,11.10
2018-09-18T02:09:10.653Z,8.27
2018-09-18T02:11:38.717Z,10.23
2018-09-18T02:14:06.710Z,9.40
2018-09-18T02:16:34.690Z,8.60
2018-09-18T02:19:02.730Z,7.60
2018-09-18T02:21:30.717Z,8.80
2018-09-18T02:23:58.774Z,9.90
2018-09-18T02:26:26.767Z,7.53
2018-09-18T02:28:54.762Z,8.60
2018-09-18T02:31:22.755Z,7.80
2018-09-18T02:33:50.735Z,8.10
2018-09-18T02:36:18.710Z,8.20
2018-09-18T02:38:46.710Z,7.33
2018-09-18T02:41:14.691Z,9.10
2018-09-18T02:43:42.727Z,10.73
2018-09-18T02:46:11.411Z,9.50
2018-09-18T02:48:39.734Z,8.20
2018-09-18T02:51:08.523Z,8.30
2018-09-18T02:53:37.307Z,7.17
2018-09-18T02:56:05.321Z,7.27
2018-09-18T02:58:33.306Z,8.50
2018-09-18T03:01:01.351Z,7.57
2018-09-18T03:03:29.410Z,10.63
2018-09-18T03:05:57.419Z,7.17
2018-09-18T03:08:25.463Z,7.67
2018-09-18T03:10:53.463Z,6.83
2018-09-18T03:13:21.439Z,8.30
2018-09-18T03:15:49.752Z,9.70
2018-09-18T03:18:17.736Z,7.33
2018-09-18T03:20:45.738Z,6.90
2018-09-18T03:23:13.708Z,11.80
2018-09-18T03:25:41.791Z,9.60
2018-09-18T03:28:09.828Z,8.87
2018-09-18T03:30:38.579Z,6.80
2018-09-18T03:33:06.588Z,9.73
2018-09-18T03:35:34.643Z,7.70
2018-09-18T03:38:02.604Z,7.50
2018-09-18T03:40:30.603Z,7.53
2018-09-18T03:42:58.588Z,7.73
2018-09-18T03:45:26.648Z,7.53
2018-09-18T03:47:54.696Z,9.33
2018-09-18T03:50:22.755Z,8.17
2018-09-18T03:52:50.764Z,12.20
2018-09-18T03:55:18.911Z,9.17
2018-09-18T03:57:46.905Z,11.17
2018-09-18T04:00:15.040Z,7.67
2018-09-18T04:02:43.118Z,12.30
2018-09-18T04:05:11.056Z,7.63
2018-09-18T04:07:39.077Z,8.23
2018-09-18T04:10:07.404Z,8.03
2018-09-18T04:12:35.672Z,8.87
2018-09-18T04:15:04.475Z,8.03
2018-09-18T04:17:32.831Z,7.90
2018-09-18T04:20:01.076Z,7.30
2018-09-18T04:22:29.360Z,11.63
2018-09-18T04:24:57.629Z,9.67
2018-09-18T04:27:25.873Z,7.60
2018-09-18T04:29:54.153Z,12.50
2018-09-18T04:32:22.385Z,8.30
2018-09-18T04:34:50.633Z,10.30
2018-09-18T04:37:18.949Z,9.37
2018-09-18T04:39:47.184Z,7.40
2018-09-18T04:42:15.556Z,8.33
2018-09-18T04:44:43.861Z,7.00
2018-09-18T04:47:12.657Z,8.03
2018-09-18T04:49:41.037Z,9.00
2018-09-18T04:52:09.280Z,7.33
2018-09-18T04:54:37.789Z,7.03
2018-09-18T04:57:06.273Z,7.77
2018-09-18T04:59:34.513Z,8.07
2018-09-18T05:02:02.931Z,8.50
2018-09-18T05:04:31.277Z,7.80
2018-09-18T05:06:59.558Z,8.50
2018-09-18T05:09:27.971Z,7.40
2018-09-18T05:11:56.058Z,9.93
2018-09-18T05:14:24.309Z,9.17
2018-09-18T05:16:52.589Z,10.13
2018-09-18T05:19:20.889Z,8.10
2018-09-18T05:21:49.173Z,7.83
2018-09-18T05:24:17.449Z,9.70
2018-09-18T05:26:45.687Z,10.73
2018-09-18T05:29:14.113Z,10.63
2018-09-18T05:31:42.425Z,7.20
2018-09-18T05:34:10.709Z,8.30
2018-09-18T05:36:39.318Z,7.90
2018-09-18T05:39:08.905Z,7.83
2018-09-18T05:41:37.137Z,8.33
2018-09-18T05:44:05.325Z,8.53
2018-09-18T05:46:33.561Z,7.33
2018-09-18T05:49:01.846Z,9.40
2018-09-18T05:51:30.146Z,7.07
2018-09-18T05:53:58.450Z,7.53
2018-09-18T05:56:26.730Z,8.27
2018-09-18T05:58:54.962Z,9.27
2018-09-18T06:01:23.009Z,9.83
2018-09-18T06:03:51.242Z,9.03
2018-09-18T06:06:19.525Z,11.67
2018-09-18T06:08:47.796Z,8.00
2018-09-18T06:11:16.069Z,9.63
2018-09-18T06:13:44.448Z,7.57
2018-09-18T06:16:12.738Z,8.80
2018-09-18T06:18:40.804Z,8.90
2018-09-18T06:21:09.429Z,10.13
2018-09-18T06:23:37.725Z,10.83
2018-09-18T06:26:06.048Z,7.97
2018-09-18T06:28:34.337Z,8.40
2018-09-18T06:31:02.575Z,7.53
2018-09-18T06:33:30.830Z,8.27
2018-09-18T06:35:59.105Z,8.23
2018-09-18T06:38:27.078Z,8.43
2018-09-18T06:40:55.121Z,9.13
2018-09-18T06:43:23.410Z,8.60
2018-09-18T06:45:51.867Z,9.80
2018-09-18T06:48:20.194Z,7.63
2018-09-18T06:50:48.478Z,7.70
2018-09-18T06:53:16.798Z,7.73
2018-09-18T06:55:45.083Z,6.93
2018-09-18T06:58:13.408Z,9.30
2018-09-18T07:00:41.658Z,8.70
2018-09-18T07:03:09.668Z,10.53
2018-09-18T07:05:37.963Z,9.30
2018-09-18T07:08:06.210Z,9.10
2018-09-18T07:10:34.502Z,8.50
2018-09-18T07:13:02.494Z,7.27
2018-09-18T07:15:30.742Z,10.03
2018-09-18T07:17:58.782Z,7.90
2018-09-18T07:20:27.015Z,9.87
2018-09-18T07:22:55.265Z,8.23
2018-09-18T07:25:23.549Z,9.50
2018-09-18T07:27:51.995Z,7.37
2018-09-18T07:30:20.228Z,7.67
2018-09-18T07:32:48.494Z,9.43
2018-09-18T07:35:16.779Z,9.37
2018-09-18T07:37:44.764Z,7.87
2018-09-18T07:40:12.778Z,7.33
2018-09-18T07:42:40.787Z,6.23
2018-09-18T07:45:08.766Z,6.50
2018-09-18T07:47:36.831Z,9.60
2018-09-18T07:50:04.854Z,5.50
2018-09-18T07:52:37.335Z,6.17
2018-09-18T07:55:05.331Z,6.50
2018-09-18T07:57:33.312Z,4.60
2018-09-18T08:00:01.309Z,5.93
2018-09-18T08:02:29.432Z,5.30
2018-09-18T08:04:57.435Z,6.47
2018-09-18T08:07:25.440Z,6.83
2018-09-18T08:09:53.422Z,9.10
2018-09-18T08:12:21.533Z,5.93
2018-09-18T08:14:49.544Z,5.60
2018-09-18T08:17:17.535Z,5.00
2018-09-18T08:19:46.235Z,4.93
2018-09-18T08:22:14.148Z,7.30
2018-09-18T08:24:42.172Z,5.00
2018-09-18T08:27:10.185Z,4.77
2018-09-18T08:29:38.184Z,5.23
2018-09-18T08:32:06.184Z,4.10
2018-09-18T08:34:34.175Z,6.63
2018-09-18T08:37:02.186Z,4.47
2018-09-18T08:39:30.296Z,4.93
2018-09-18T08:41:58.270Z,5.70
2018-09-18T08:44:26.272Z,3.63
2018-09-18T08:46:54.266Z,4.10
2018-09-18T08:49:22.260Z,6.77
2018-09-18T08:51:50.252Z,5.90
2018-09-18T08:54:18.228Z,7.83
2018-09-18T08:56:46.337Z,6.27
2018-09-18T08:59:14.352Z,7.12
2018-09-18T09:01:42.396Z,7.20
2018-09-18T09:04:10.458Z,6.80
2018-09-18T09:06:38.618Z,3.75
2018-09-18T09:09:08.612Z,3.77
2018-09-18T09:11:36.583Z,5.78
2018-09-18T09:14:04.580Z,3.70
2018-09-18T09:16:32.553Z,6.70
2018-09-18T09:19:00.797Z,4.12
2018-09-18T09:21:28.797Z,4.95
2018-09-18T09:23:56.811Z,6.97
2018-09-18T09:26:24.869Z,7.37
2018-09-18T09:28:54.041Z,5.35
2018-09-18T09:31:22.161Z,5.10
2018-09-18T09:33:50.201Z,5.75
2018-09-18T09:36:19.527Z,5.03
2018-09-18T09:38:47.559Z,5.45
2018-09-18T09:41:15.543Z,5.45
2018-09-18T09:43:43.703Z,6.35
2018-09-18T09:46:11.648Z,5.28
2018-09-18T09:48:40.428Z,3.60
2018-09-18T09:51:08.462Z,3.50
2018-09-18T09:53:36.421Z,6.33
2018-09-18T09:56:04.417Z,4.03
2018-09-18T09:58:32.437Z,4.10
2018-09-18T10:01:05.930Z,5.30
2018-09-18T10:03:33.922Z,3.98
2018-09-18T10:06:02.041Z,4.25
2018-09-18T10:08:30.042Z,5.70
2018-09-18T10:10:58.148Z,4.17
2018-09-18T10:13:26.081Z,7.80
2018-09-18T10:15:54.053Z,5.83
2018-09-18T10:18:22.042Z,3.90
2018-09-18T10:20:50.046Z,4.65
2018-09-18T10:23:18.122Z,4.03
2018-09-18T10:25:46.158Z,9.43
2018-09-18T10:28:14.341Z,5.37
2018-09-18T10:30:42.428Z,5.80
2018-09-18T10:33:10.490Z,6.35
2018-09-18T10:35:38.645Z,6.65
2018-09-18T10:38:06.690Z,5.50
2018-09-18T10:40:34.678Z,6.58
2018-09-18T10:43:02.689Z,6.80
2018-09-18T10:45:30.782Z,7.15
2018-09-18T10:47:58.790Z,5.58
2018-09-18T10:50:26.830Z,5.03
2018-09-18T10:52:54.836Z,9.98
2018-09-18T10:55:22.895Z,6.28
2018-09-18T10:57:51.044Z,10.08
2018-09-18T11:00:19.038Z,10.55
2018-09-18T11:02:47.042Z,8.08
2018-09-18T11:05:15.048Z,9.70
2018-09-18T11:07:43.262Z,7.55
2018-09-18T11:10:12.116Z,8.68
2018-09-18T11:12:40.792Z,5.97
2018-09-18T11:15:08.797Z,5.53
2018-09-18T11:17:36.849Z,5.20
2018-09-18T11:20:05.171Z,5.08
2018-09-18T11:22:33.198Z,6.10
2018-09-18T11:25:01.283Z,6.67
2018-09-18T11:27:29.234Z,12.28
2018-09-18T11:29:57.308Z,12.30
2018-09-18T11:32:25.307Z,8.15
2018-09-18T11:34:53.340Z,7.55
2018-09-18T11:37:21.467Z,5.72
2018-09-18T11:39:49.643Z,6.80
2018-09-18T11:42:17.791Z,6.70
2018-09-18T11:44:45.826Z,6.92
2018-09-18T11:47:13.974Z,6.75
2018-09-18T11:49:42.063Z,7.47
2018-09-18T11:52:10.131Z,7.90
2018-09-18T11:54:38.151Z,8.25
2018-09-18T11:57:06.665Z,10.00
2018-09-18T11:59:34.751Z,5.10
2018-09-18T12:02:02.878Z,7.25
2018-09-18T12:04:31.045Z,6.80
2018-09-18T12:06:59.075Z,7.37
2018-09-18T12:09:27.144Z,9.73
2018-09-18T12:11:55.131Z,6.87
2018-09-18T12:14:23.452Z,6.30
2018-09-18T12:16:51.584Z,5.53
2018-09-18T12:19:19.524Z,12.55
2018-09-18T12:21:47.558Z,8.83
2018-09-18T12:24:15.613Z,6.78
2018-09-18T12:26:43.856Z,11.25
2018-09-18T12:29:11.876Z,10.15
2018-09-18T12:31:39.880Z,6.75
2018-09-18T12:34:07.880Z,6.47
2018-09-18T12:36:35.892Z,8.28
2018-09-18T12:39:05.508Z,6.78
2018-09-18T12:41:33.621Z,5.75
2018-09-18T12:44:01.496Z,7.10
2018-09-18T12:46:29.573Z,8.28
2018-09-18T12:48:57.567Z,7.87
2018-09-18T12:51:25.648Z,9.15
2018-09-18T12:53:53.761Z,7.70
2018-09-18T12:56:21.681Z,6.80
2018-09-18T12:58:49.788Z,9.35
2018-09-18T13:01:17.815Z,11.00
2018-09-18T13:03:45.825Z,6.65
2018-09-18T13:06:14.025Z,8.10
2018-09-18T13:08:41.981Z,9.83
2018-09-18T13:11:09.964Z,9.88
2018-09-18T13:13:38.325Z,10.28
2018-09-18T13:16:06.384Z,8.03
2018-09-18T13:18:34.385Z,6.65
2018-09-18T13:21:02.388Z,5.72
2018-09-18T13:23:30.425Z,7.35
2018-09-18T13:25:58.385Z,7.97
2018-09-18T13:28:26.367Z,10.00
2018-09-18T13:30:54.376Z,9.75
2018-09-18T13:33:22.490Z,4.90
2018-09-18T13:35:50.557Z,8.98
2018-09-18T13:38:18.573Z,5.95
2018-09-18T13:40:46.602Z,5.37
2018-09-18T13:43:14.789Z,7.72
2018-09-18T13:45:42.897Z,4.20
2018-09-18T13:48:11.070Z,9.73
2018-09-18T13:50:39.090Z,5.17
2018-09-18T13:53:07.405Z,7.62
2018-09-18T13:55:35.532Z,9.10
2018-09-18T13:58:03.610Z,5.92
2018-09-18T14:00:31.674Z,9.70
2018-09-18T14:02:59.717Z,4.35
2018-09-18T14:05:27.783Z,4.72
2018-09-18T14:07:55.811Z,4.50
2018-09-18T14:10:23.867Z,5.28
2018-09-18T14:12:51.865Z,7.55
2018-09-18T14:15:19.993Z,4.60
2018-09-18T14:17:48.198Z,4.33
2018-09-18T14:20:16.357Z,8.18
2018-09-18T14:22:44.398Z,4.28
2018-09-18T14:25:12.462Z,6.05
2018-09-18T14:27:40.518Z,5.12
2018-09-18T14:30:08.562Z,5.70
2018-09-18T14:32:36.623Z,4.62
2018-09-18T14:35:04.638Z,6.70
2018-09-18T14:37:32.674Z,7.12
2018-09-18T14:40:00.703Z,5.45
2018-09-18T14:42:28.705Z,3.45
2018-09-18T14:44:56.742Z,4.05
2018-09-18T14:47:24.733Z,7.70
2018-09-18T14:49:52.714Z,8.20
2018-09-18T14:52:20.781Z,4.00
2018-09-18T14:54:48.838Z,4.57
2018-09-18T14:57:17.032Z,7.58
2018-09-18T14:59:45.248Z,7.33
2018-09-18T15:02:13.364Z,6.28
2018-09-18T15:04:42.333Z,3.45
2018-09-18T15:07:10.603Z,3.50
2018-09-18T15:09:38.601Z,4.65
2018-09-18T15:12:06.613Z,3.90
2018-09-18T15:14:34.661Z,8.75
2018-09-18T15:17:02.686Z,4.50
2018-09-18T15:19:31.129Z,5.05
2018-09-18T15:21:59.213Z,4.35
2018-09-18T15:24:27.321Z,4.00
2018-09-18T15:26:56.217Z,7.43
2018-09-18T15:29:24.289Z,3.30
2018-09-18T15:31:52.306Z,2.45
2018-09-18T15:34:20.466Z,3.77
2018-09-18T15:36:48.578Z,4.55
2018-09-18T15:39:16.784Z,5.40
2018-09-18T15:41:44.844Z,5.90
2018-09-18T15:44:12.930Z,2.50
2018-09-18T15:46:41.123Z,2.65
2018-09-18T15:49:09.187Z,5.12
2018-09-18T15:51:37.284Z,5.05
2018-09-18T15:54:05.664Z,7.47
2018-09-18T15:56:33.736Z,3.95
2018-09-18T15:59:01.754Z,4.12
2018-09-18T16:01:29.930Z,6.80
2018-09-18T16:03:57.903Z,3.60
2018-09-18T16:06:26.030Z,6.35
2018-09-18T16:08:54.039Z,7.10
2018-09-18T16:11:22.208Z,3.47
2018-09-18T16:13:50.376Z,6.90
2018-09-18T16:16:18.501Z,4.80
2018-09-18T16:18:46.410Z,6.08
2018-09-18T16:21:14.639Z,6.55
2018-09-18T16:23:42.938Z,4.12
2018-09-18T16:26:12.327Z,2.95
2018-09-18T16:28:40.519Z,5.17
2018-09-18T16:31:08.542Z,5.72
2018-09-18T16:33:36.558Z,5.53
2018-09-18T16:36:04.564Z,4.17
2018-09-18T16:38:32.662Z,6.17
2018-09-18T16:41:00.694Z,4.40
2018-09-18T16:43:28.755Z,3.72
2018-09-18T16:45:56.767Z,8.97
2018-09-18T16:48:24.811Z,6.70
2018-09-18T16:50:52.771Z,7.30
2018-09-18T16:53:20.787Z,10.20
2018-09-18T16:55:48.807Z,4.87
2018-09-18T16:58:16.783Z,6.03
2018-09-18T17:00:44.943Z,4.55
2018-09-18T17:03:13.037Z,9.18
2018-09-18T17:05:41.351Z,3.65
2018-09-18T17:08:09.323Z,5.73
2018-09-18T17:10:37.371Z,3.87
2018-09-18T17:13:05.343Z,5.62
2018-09-18T17:15:33.319Z,4.08
2018-09-18T17:18:01.351Z,11.80
2018-09-18T17:20:29.451Z,7.80
2018-09-18T17:22:57.434Z,6.72
2018-09-18T17:25:25.475Z,6.03
2018-09-18T17:27:53.484Z,9.30
2018-09-18T17:30:21.486Z,5.97
2018-09-18T17:32:49.488Z,7.05
2018-09-18T17:35:17.476Z,8.48
2018-09-18T17:37:45.456Z,8.98
2018-09-18T17:40:14.305Z,7.78
2018-09-18T17:42:43.290Z,9.05
2018-09-18T17:45:11.364Z,9.25
2018-09-18T17:47:39.570Z,5.20
2018-09-18T17:50:07.576Z,5.60
2018-09-18T17:52:36.036Z,6.00
2018-09-18T17:55:04.043Z,11.55
2018-09-18T17:57:32.080Z,16.52
2018-09-18T18:00:00.105Z,11.10
2018-09-18T18:02:28.081Z,9.70
2018-09-18T18:04:56.361Z,9.95
2018-09-18T18:07:25.137Z,7.45
2018-09-18T18:09:53.640Z,9.27
2018-09-18T18:12:21.758Z,10.65
2018-09-18T18:14:50.053Z,10.63
2018-09-18T18:17:18.145Z,7.78
2018-09-18T18:19:46.184Z,6.25
2018-09-18T18:22:14.204Z,8.10
2018-09-18T18:24:43.161Z,8.10
2018-09-18T18:27:11.191Z,6.77
2018-09-18T18:29:39.188Z,8.28
2018-09-18T18:32:07.509Z,5.35
2018-09-18T18:34:35.514Z,9.87
2018-09-18T18:37:03.545Z,7.87
2018-09-18T18:39:31.619Z,5.83
2018-09-18T18:41:59.813Z,11.43
2018-09-18T18:44:28.025Z,8.20
2018-09-18T18:46:56.293Z,8.27
2018-09-18T18:49:24.570Z,6.80
2018-09-18T18:51:52.588Z,9.63
2018-09-18T18:54:21.033Z,7.30
2018-09-18T18:56:49.131Z,6.53
2018-09-18T18:59:17.248Z,8.73
2018-09-18T19:01:45.281Z,7.70
2018-09-18T19:04:13.328Z,9.03
2018-09-18T19:06:41.764Z,8.55
2018-09-18T19:09:10.278Z,6.83
2018-09-18T19:11:38.473Z,7.30
2018-09-18T19:14:06.494Z,8.88
2018-09-18T19:16:34.502Z,6.42
2018-09-18T19:19:02.989Z,6.67
2018-09-18T19:21:32.870Z,11.18
2018-09-18T19:24:01.086Z,8.48
2018-09-18T19:26:29.188Z,8.48
2018-09-18T19:28:57.253Z,12.30
2018-09-18T19:31:25.271Z,10.23
2018-09-18T19:33:53.319Z,6.07
2018-09-18T19:36:21.315Z,8.97
2018-09-18T19:38:49.368Z,11.77
2018-09-18T19:41:17.425Z,6.50
2018-09-18T19:43:45.515Z,10.53
2018-09-18T19:46:13.545Z,12.60
2018-09-18T19:48:41.824Z,10.33
2018-09-18T19:51:10.663Z,10.30
2018-09-18T19:53:38.663Z,9.40
2018-09-18T19:56:06.735Z,12.37
2018-09-18T19:58:34.919Z,10.47
2018-09-18T20:01:03.008Z,7.57
2018-09-18T20:03:31.035Z,6.93
2018-09-18T20:05:59.133Z,10.57
2018-09-18T20:08:27.133Z,16.07
2018-09-18T20:10:55.128Z,8.77
2018-09-18T20:13:23.116Z,12.63
2018-09-18T20:15:51.129Z,10.05
2018-09-18T20:18:19.125Z,7.57
2018-09-18T20:20:47.255Z,8.00
2018-09-18T20:23:15.270Z,14.13
2018-09-18T20:25:44.427Z,12.87
2018-09-18T20:28:12.476Z,13.23
2018-09-18T20:30:40.580Z,14.60
2018-09-18T20:33:08.716Z,9.73
2018-09-18T20:35:36.794Z,11.53
2018-09-18T20:38:04.951Z,12.17
2018-09-18T20:40:32.969Z,12.30
2018-09-18T20:43:01.227Z,11.33
2018-09-18T20:45:29.272Z,18.27
2018-09-18T20:47:57.254Z,11.63
2018-09-18T20:50:25.324Z,9.90
2018-09-18T20:52:54.915Z,12.47
2018-09-18T20:55:23.097Z,8.13
2018-09-18T20:57:51.095Z,14.03
2018-09-18T21:00:19.196Z,14.87
2018-09-18T21:02:47.301Z,9.60
2018-09-18T21:05:15.376Z,10.70
2018-09-18T21:07:44.267Z,13.27
2018-09-18T21:10:12.884Z,9.37
2018-09-18T21:12:41.608Z,14.73
2018-09-18T21:15:09.704Z,11.60
2018-09-18T21:17:37.723Z,12.27
2018-09-18T21:20:05.737Z,13.40
2018-09-18T21:22:33.732Z,10.90
2018-09-18T21:25:16.596Z,13.47
2018-09-18T21:27:45.688Z,13.57
2018-09-18T21:30:15.344Z,14.73
2018-09-18T21:32:44.131Z,12.57
2018-09-18T21:35:12.148Z,8.47
2018-09-18T21:37:41.015Z,10.63
2018-09-18T21:40:09.068Z,11.27
2018-09-18T21:42:37.183Z,10.27
2018-09-18T21:45:05.171Z,10.17
2018-09-18T21:47:33.214Z,11.93
2018-09-18T21:50:01.206Z,10.93
2018-09-18T21:52:29.218Z,11.90
2018-09-18T21:54:57.223Z,9.07
2018-09-18T21:57:25.419Z,12.43
2018-09-18T21:59:53.464Z,14.60
2018-09-18T22:02:23.050Z,17.27
2018-09-18T22:04:51.057Z,8.27
2018-09-18T22:07:19.158Z,11.53
2018-09-18T22:09:47.167Z,12.43
2018-09-18T22:12:15.341Z,13.30
2018-09-18T22:14:43.360Z,12.87
2018-09-18T22:17:11.390Z,10.57
2018-09-18T22:19:39.413Z,11.90
2018-09-18T22:22:07.526Z,10.57
2018-09-18T22:24:35.474Z,14.47
2018-09-18T22:27:03.585Z,10.82
2018-09-18T22:29:31.699Z,14.50
2018-09-18T22:31:59.777Z,10.03
2018-09-18T22:34:28.686Z,13.53
2018-09-18T22:36:56.679Z,12.30
2018-09-18T22:39:24.712Z,6.40
2018-09-18T22:41:52.723Z,13.27
2018-09-18T22:44:20.695Z,14.87
2018-09-18T22:46:48.697Z,11.63
2018-09-18T22:49:16.673Z,14.17
2018-09-18T22:51:45.121Z,18.17
2018-09-18T22:54:13.134Z,10.50
2018-09-18T22:56:41.204Z,16.20
2018-09-18T22:59:09.193Z,9.87
2018-09-18T23:01:37.608Z,15.17
2018-09-18T23:04:05.688Z,14.40
2018-09-18T23:06:33.789Z,15.03
2018-09-18T23:09:01.818Z,12.73
2018-09-18T23:11:29.814Z,13.75
2018-09-18T23:13:57.806Z,11.10
2018-09-18T23:16:25.800Z,8.37
2018-09-18T23:18:53.962Z,13.40
2018-09-18T23:21:21.875Z,13.87
2018-09-18T23:23:49.863Z,12.00
2018-09-18T23:26:17.879Z,15.07
2018-09-18T23:28:45.950Z,11.97
2018-09-18T23:31:14.036Z,11.83
2018-09-18T23:33:42.034Z,16.17
2018-09-18T23:36:10.037Z,11.87
2018-09-18T23:38:38.126Z,12.40
2018-09-18T23:41:06.136Z,9.10
2018-09-18T23:43:34.197Z,10.03
2018-09-18T23:46:02.182Z,10.87
2018-09-18T23:48:30.168Z,11.00
2018-09-18T23:50:58.207Z,9.93
2018-09-18T23:53:26.180Z,13.23
2018-09-18T23:55:54.239Z,12.67
2018-09-18T23:58:22.243Z,12.17
